createdAt,value
2023-04-11T00:00:25.760Z,10.30
2023-04-11T00:03:00.076Z,10.40
2023-04-11T00:05:34.269Z,10.30
2023-04-11T00:08:04.461Z,10.40
2023-04-11T00:10:35.392Z,10.50
2023-04-11T00:13:07.586Z,10.60
2023-04-11T00:15:40.091Z,10.60
2023-04-11T00:18:12.729Z,10.60
2023-04-11T00:20:45.546Z,10.60
2023-04-11T00:23:18.609Z,10.50
2023-04-11T00:25:48.848Z,10.50
2023-04-11T00:28:19.039Z,10.50
2023-04-11T00:30:49.268Z,10.70
2023-04-11T00:33:19.615Z,10.70
2023-04-11T00:35:52.599Z,10.60
2023-04-11T00:38:22.810Z,10.60
2023-04-11T00:40:53.131Z,10.60
2023-04-11T00:43:23.432Z,10.70
2023-04-11T00:45:54.272Z,10.60
2023-04-11T00:48:30.623Z,10.70
2023-04-11T00:51:04.053Z,10.60
2023-04-11T00:53:35.386Z,10.60
2023-04-11T00:56:05.744Z,10.60
2023-04-11T00:58:37.815Z,10.50
2023-04-11T01:01:09.976Z,10.60
2023-04-11T01:03:42.573Z,10.50
2023-04-11T01:06:22.944Z,10.60
2023-04-11T01:08:53.952Z,10.50
2023-04-11T01:11:24.841Z,10.40
2023-04-11T01:13:55.976Z,10.30
2023-04-11T01:16:27.775Z,10.20
2023-04-11T01:18:58.157Z,10.10
2023-04-11T01:21:32.068Z,10.00
2023-04-11T01:24:04.879Z,10.00
2023-04-11T01:26:36.013Z,10.00
2023-04-11T01:29:06.574Z,10.00
2023-04-11T01:31:36.789Z,10.00
2023-04-11T01:34:12.981Z,9.90
2023-04-11T01:36:45.015Z,9.90
2023-04-11T01:39:18.954Z,9.90
2023-04-11T01:41:50.859Z,10.00
2023-04-11T01:44:23.186Z,10.00
2023-04-11T01:46:54.484Z,10.00
2023-04-11T01:49:27.310Z,10.00
2023-04-11T01:51:57.613Z,9.90
2023-04-11T01:54:31.501Z,10.10
2023-04-11T01:57:03.197Z,10.10
2023-04-11T01:59:34.439Z,10.10
2023-04-11T02:02:04.893Z,10.20
2023-04-11T02:04:37.733Z,10.20
2023-04-11T02:07:08.009Z,10.00
2023-04-11T02:09:41.813Z,10.00
2023-04-11T02:12:12.102Z,10.10
2023-04-11T02:14:49.278Z,10.10
2023-04-11T02:17:22.564Z,10.10
2023-04-11T02:19:52.752Z,10.00
2023-04-11T02:22:22.965Z,10.00
2023-04-11T02:24:55.769Z,9.90
2023-04-11T02:27:26.581Z,9.90
2023-04-11T02:29:56.736Z,9.90
2023-04-11T02:32:27.904Z,9.70
2023-04-11T02:34:58.096Z,9.70
2023-04-11T02:37:28.982Z,9.60
2023-04-11T02:40:01.933Z,9.60
2023-04-11T02:42:32.160Z,9.50
2023-04-11T02:45:02.400Z,9.50
2023-04-11T02:47:32.661Z,9.40
2023-04-11T02:50:02.881Z,9.40
2023-04-11T02:52:33.761Z,9.30
2023-04-11T02:55:07.121Z,9.30
2023-04-11T02:57:37.345Z,9.40
2023-04-11T03:00:10.066Z,9.40
2023-04-11T03:02:43.579Z,9.30
2023-04-11T03:05:13.983Z,9.30
2023-04-11T03:07:44.287Z,9.20
2023-04-11T03:10:17.117Z,9.20
2023-04-11T03:12:47.338Z,9.20
2023-04-11T03:15:18.141Z,9.30
2023-04-11T03:17:48.388Z,9.20
2023-04-11T03:20:20.351Z,9.30
2023-04-11T03:22:50.646Z,9.30
2023-04-11T03:25:26.576Z,9.30
2023-04-11T03:27:58.271Z,9.20
2023-04-11T03:30:28.468Z,9.20
2023-04-11T03:33:02.893Z,9.10
2023-04-11T03:35:33.072Z,9.10
2023-04-11T03:38:03.333Z,9.10
2023-04-11T03:40:36.438Z,9.10
2023-04-11T03:43:06.734Z,9.00
2023-04-11T03:45:37.406Z,9.10
2023-04-11T03:48:08.960Z,9.00
2023-04-11T03:50:39.245Z,8.90
2023-04-11T03:53:09.882Z,8.90
2023-04-11T03:55:45.941Z,8.90
2023-04-11T03:58:16.212Z,9.00
2023-04-11T04:00:47.532Z,9.00
2023-04-11T04:03:20.912Z,9.10
2023-04-11T04:05:51.226Z,9.10
2023-04-11T04:08:21.441Z,9.10
2023-04-11T04:10:54.231Z,9.00
2023-04-11T04:13:24.498Z,9.00
2023-04-11T04:15:54.952Z,9.00
2023-04-11T04:18:25.153Z,8.90
2023-04-11T04:20:55.392Z,9.00
2023-04-11T04:23:26.944Z,9.10
2023-04-11T04:26:02.405Z,9.10
2023-04-11T04:28:32.937Z,9.20
2023-04-11T04:31:04.215Z,9.10
2023-04-11T04:33:34.685Z,9.00
2023-04-11T04:36:10.311Z,8.90
2023-04-11T04:38:42.357Z,8.90
2023-04-11T04:41:15.942Z,8.80
2023-04-11T04:43:46.651Z,8.90
2023-04-11T04:46:17.149Z,8.90
2023-04-11T04:48:47.450Z,8.90
2023-04-11T04:51:19.876Z,9.00
2023-04-11T04:53:50.256Z,9.00
2023-04-11T04:56:23.066Z,9.10
2023-04-11T04:58:53.286Z,9.10
2023-04-11T05:01:26.997Z,9.10
2023-04-11T05:04:01.948Z,9.20
2023-04-11T05:06:35.013Z,9.20
2023-04-11T05:09:06.320Z,9.10
2023-04-11T05:11:39.226Z,9.00
2023-04-11T05:14:10.776Z,9.00
2023-04-11T05:16:46.411Z,9.00
2023-04-11T05:19:19.807Z,9.20
2023-04-11T05:21:52.538Z,9.20
2023-04-11T05:24:22.730Z,9.20
2023-04-11T05:26:56.820Z,9.40
2023-04-11T05:29:28.519Z,9.40
2023-04-11T05:32:01.254Z,9.40
2023-04-11T05:34:35.214Z,9.40
2023-04-11T05:37:07.166Z,9.40
2023-04-11T05:39:37.416Z,9.50
2023-04-11T05:42:10.304Z,9.50
2023-04-11T05:44:40.598Z,9.60
2023-04-11T05:47:11.687Z,9.60
2023-04-11T05:49:41.991Z,9.60
2023-04-11T05:52:12.225Z,9.50
2023-04-11T05:54:42.490Z,9.50
2023-04-11T05:57:15.311Z,9.50
2023-04-11T05:59:49.979Z,9.60
2023-04-11T06:02:20.410Z,9.70
2023-04-11T06:04:51.390Z,10.00
2023-04-11T06:07:21.753Z,10.10
2023-04-11T06:09:52.621Z,10.10
2023-04-11T06:12:25.653Z,10.30
2023-04-11T06:14:55.843Z,10.30
2023-04-11T06:17:26.033Z,10.40
2023-04-11T06:19:57.648Z,10.50
2023-04-11T06:22:27.934Z,10.60
2023-04-11T06:24:58.234Z,10.70
2023-04-11T06:27:31.357Z,10.60
2023-04-11T06:30:01.655Z,10.80
2023-04-11T06:32:31.964Z,10.70
2023-04-11T06:35:04.772Z,10.90
2023-04-11T06:37:42.596Z,11.00
2023-04-11T06:40:14.248Z,10.90
2023-04-11T06:42:48.143Z,11.00
2023-04-11T06:45:20.938Z,10.90
2023-04-11T06:47:52.765Z,10.80
2023-04-11T06:50:23.309Z,11.00
2023-04-11T06:52:53.565Z,11.20
2023-04-11T06:55:24.069Z,11.30
2023-04-11T06:57:58.997Z,11.50
2023-04-11T07:00:29.819Z,11.60
2023-04-11T07:03:01.177Z,11.60
2023-04-11T07:05:34.103Z,11.40
2023-04-11T07:08:04.490Z,11.40
2023-04-11T07:10:34.668Z,11.40
2023-04-11T07:13:07.475Z,11.40
2023-04-11T07:15:37.712Z,11.50
2023-04-11T07:18:08.105Z,11.60
2023-04-11T07:20:41.469Z,12.00
2023-04-11T07:23:11.729Z,12.20
2023-04-11T07:25:41.912Z,12.50
2023-04-11T07:28:14.904Z,13.30
2023-04-11T07:30:45.332Z,13.60
2023-04-11T07:33:15.537Z,12.70
2023-04-11T07:35:48.597Z,12.60
2023-04-11T07:38:29.516Z,13.90
2023-04-11T07:41:02.436Z,16.00
2023-04-11T07:43:37.246Z,17.70
2023-04-11T07:46:07.556Z,18.40
2023-04-11T07:48:37.901Z,19.00
2023-04-11T07:51:08.390Z,20.10
2023-04-11T07:53:38.664Z,19.80
2023-04-11T07:56:10.181Z,19.70
2023-04-11T07:58:43.188Z,17.40
2023-04-11T08:01:25.188Z,16.70
2023-04-11T08:03:57.854Z,17.50
2023-04-11T08:06:29.186Z,17.70
2023-04-11T08:09:01.092Z,18.30
2023-04-11T08:11:31.341Z,18.80
2023-04-11T08:14:05.636Z,19.70
2023-04-11T08:16:37.845Z,20.10
2023-04-11T08:19:08.125Z,20.70
2023-04-11T08:21:38.310Z,20.10
2023-04-11T08:24:09.024Z,19.70
2023-04-11T08:26:39.378Z,19.70
2023-04-11T08:29:12.622Z,17.70
2023-04-11T08:31:46.648Z,17.00
2023-04-11T08:34:16.926Z,17.90
2023-04-11T08:36:47.160Z,19.60
2023-04-11T08:39:17.447Z,18.50
2023-04-11T08:41:47.896Z,18.80
2023-04-11T08:44:21.520Z,19.50
2023-04-11T08:46:51.939Z,20.20
2023-04-11T08:49:27.698Z,21.20
2023-04-11T08:51:58.918Z,21.30
2023-04-11T08:54:29.274Z,21.10
2023-04-11T08:57:02.437Z,21.20
2023-04-11T08:59:37.069Z,22.40
2023-04-11T09:02:11.063Z,21.80
2023-04-11T09:04:49.224Z,21.40
2023-04-11T09:07:19.804Z,22.10
2023-04-11T09:09:50.066Z,21.60
2023-04-11T09:12:31.844Z,20.30
2023-04-11T09:15:24.266Z,19.00
2023-04-11T09:17:57.597Z,19.30
2023-04-11T09:20:30.577Z,20.10
2023-04-11T09:23:02.002Z,19.30
2023-04-11T09:25:32.286Z,20.80
2023-04-11T09:28:13.238Z,21.60
2023-04-11T09:30:53.456Z,22.00
2023-04-11T09:33:30.031Z,21.30
2023-04-11T09:36:00.455Z,21.40
2023-04-11T09:38:34.120Z,22.10
2023-04-11T09:41:06.307Z,22.20
2023-04-11T09:43:52.699Z,22.10
2023-04-11T09:46:25.698Z,21.40
2023-04-11T09:49:01.706Z,20.40
2023-04-11T09:51:36.993Z,21.20
2023-04-11T09:54:08.315Z,22.50
2023-04-11T09:56:40.028Z,20.00
2023-04-11T09:59:11.237Z,19.00
2023-04-11T10:01:44.645Z,19.60
2023-04-11T10:04:14.883Z,20.70
2023-04-11T10:07:02.246Z,21.20
2023-04-11T10:09:36.044Z,20.00
2023-04-11T10:12:10.775Z,19.90
2023-04-11T10:14:48.540Z,19.90
2023-04-11T10:17:25.871Z,21.10
2023-04-11T10:19:58.994Z,20.60
2023-04-11T10:23:02.306Z,19.70
2023-04-11T10:25:34.796Z,20.40
2023-04-11T10:28:05.170Z,19.30
2023-04-11T10:31:07.788Z,18.70
2023-04-11T10:33:42.112Z,18.10
2023-04-11T10:36:14.227Z,18.80
2023-04-11T10:38:52.310Z,19.70
2023-04-11T10:41:32.009Z,21.20
2023-04-11T10:44:25.161Z,21.90
2023-04-11T10:46:57.726Z,21.30
2023-04-11T10:52:21.677Z,18.70
2023-04-11T10:54:53.438Z,18.30
2023-04-11T10:57:24.600Z,18.80
2023-04-11T11:00:16.388Z,19.50
2023-04-11T11:02:46.868Z,20.50
2023-04-11T11:05:27.065Z,19.20
2023-04-11T11:07:57.328Z,19.00
2023-04-11T11:10:46.376Z,19.90
2023-04-11T11:13:19.841Z,20.80
2023-04-11T11:15:53.589Z,20.70
2023-04-11T11:18:24.778Z,19.30
2023-04-11T11:21:00.963Z,18.20
2023-04-11T11:23:31.762Z,18.30
2023-04-11T11:26:02.928Z,17.70
2023-04-11T11:28:33.214Z,17.60
2023-04-11T11:31:04.668Z,18.00
2023-04-11T11:33:34.915Z,17.70
2023-04-11T11:36:09.506Z,17.50
2023-04-11T11:38:40.037Z,17.60
2023-04-11T11:41:10.526Z,17.30
2023-04-11T11:43:40.843Z,17.20
2023-04-11T11:46:17.637Z,16.60
2023-04-11T11:49:05.461Z,17.50
2023-04-11T11:51:49.189Z,17.90
2023-04-11T11:54:19.472Z,18.30
2023-04-11T11:56:55.324Z,18.40
2023-04-11T11:59:30.560Z,18.50
2023-04-11T12:02:00.928Z,18.70
2023-04-11T12:04:32.131Z,18.90
2023-04-11T12:07:14.224Z,19.00
2023-04-11T12:09:44.517Z,18.00
2023-04-11T12:12:17.560Z,17.60
2023-04-11T12:14:56.425Z,17.50
2023-04-11T12:17:26.801Z,17.20
2023-04-11T12:19:58.831Z,17.40
2023-04-11T12:22:31.696Z,17.60
2023-04-11T12:25:09.842Z,17.80
2023-04-11T12:27:42.920Z,17.10
2023-04-11T12:30:16.288Z,16.80
2023-04-11T12:32:47.747Z,16.60
2023-04-11T12:35:19.371Z,16.30
2023-04-11T12:37:54.252Z,16.40
2023-04-11T12:40:24.656Z,16.30
2023-04-11T12:42:57.343Z,16.60
2023-04-11T12:45:28.520Z,16.90
2023-04-11T12:47:58.713Z,17.10
2023-04-11T12:50:28.991Z,17.40
2023-04-11T12:53:03.868Z,17.40
2023-04-11T12:55:37.011Z,17.40
2023-04-11T12:58:08.256Z,17.50
2023-04-11T13:00:38.516Z,17.60
2023-04-11T13:03:08.861Z,17.70
2023-04-11T13:05:39.951Z,17.70
2023-04-11T13:08:12.798Z,17.70
2023-04-11T13:10:44.158Z,17.80
2023-04-11T13:13:18.376Z,17.70
2023-04-11T13:15:49.458Z,17.60
2023-04-11T13:18:19.668Z,17.50
2023-04-11T13:20:49.900Z,17.60
2023-04-11T13:23:25.050Z,17.30
2023-04-11T13:25:55.523Z,17.40
2023-04-11T13:28:25.789Z,17.50
2023-04-11T13:30:56.121Z,17.50
2023-04-11T13:33:26.424Z,17.60
2023-04-11T13:35:56.719Z,17.40
2023-04-11T13:38:31.816Z,17.20
2023-04-11T13:41:03.030Z,17.00
2023-04-11T13:43:33.906Z,16.70
2023-04-11T13:46:04.180Z,16.40
2023-04-11T13:48:34.479Z,16.40
2023-04-11T13:51:04.832Z,16.20
2023-04-11T13:53:37.746Z,15.70
2023-04-11T13:56:10.706Z,15.50
2023-04-11T13:58:41.028Z,15.50
2023-04-11T14:01:11.593Z,15.40
2023-04-11T14:03:42.755Z,15.00
2023-04-11T14:06:13.361Z,14.90
2023-04-11T14:08:48.649Z,14.80
2023-04-11T14:11:19.498Z,15.20
2023-04-11T14:13:49.650Z,15.50
2023-04-11T14:16:19.843Z,15.40
2023-04-11T14:18:50.111Z,15.50
2023-04-11T14:21:21.271Z,15.40
2023-04-11T14:23:54.366Z,15.30
2023-04-11T14:26:24.900Z,15.40
2023-04-11T14:28:55.104Z,15.30
2023-04-11T14:31:25.466Z,15.10
2023-04-11T14:33:57.085Z,15.00
2023-04-11T14:36:27.677Z,15.00
2023-04-11T14:39:00.492Z,15.30
2023-04-11T14:41:30.901Z,15.70
2023-04-11T14:44:01.685Z,15.90
2023-04-11T14:46:33.140Z,16.10
2023-04-11T14:49:03.844Z,16.10
2023-04-11T14:51:34.092Z,15.80
2023-04-11T14:54:07.414Z,15.70
2023-04-11T14:56:37.750Z,15.80
2023-04-11T14:59:11.569Z,15.90
2023-04-11T15:01:41.992Z,16.00
2023-04-11T15:04:13.424Z,15.90
2023-04-11T15:06:43.721Z,15.90
2023-04-11T15:09:20.240Z,15.80
2023-04-11T15:11:52.130Z,15.70
2023-04-11T15:14:29.258Z,15.60
2023-04-11T15:16:59.629Z,15.40
2023-04-11T15:19:29.847Z,15.30
2023-04-11T15:22:00.042Z,15.10
2023-04-11T15:24:32.798Z,14.80
2023-04-11T15:27:03.167Z,14.70
2023-04-11T15:29:33.453Z,14.80
2023-04-11T15:32:06.103Z,14.50
2023-04-11T15:34:37.732Z,14.60
2023-04-11T15:37:12.461Z,14.70
2023-04-11T15:39:45.221Z,14.80
2023-04-11T15:42:15.787Z,15.10
2023-04-11T15:44:46.083Z,15.10
2023-04-11T15:47:23.887Z,15.20
2023-04-11T15:49:54.232Z,15.30
2023-04-11T15:52:24.442Z,15.50
2023-04-11T15:54:57.226Z,15.50
2023-04-11T15:57:31.133Z,15.40
2023-04-11T16:00:09.841Z,15.50
2023-04-11T16:02:40.453Z,15.40
2023-04-11T16:05:13.729Z,15.60
2023-04-11T16:07:46.938Z,15.60
2023-04-11T16:10:22.040Z,15.60
2023-04-11T16:12:52.248Z,15.50
2023-04-11T16:15:22.696Z,15.30
2023-04-11T16:17:52.975Z,15.10
2023-04-11T16:20:23.601Z,14.90
2023-04-11T16:22:53.795Z,14.80
2023-04-11T16:25:26.855Z,14.70
2023-04-11T16:27:57.132Z,14.70
2023-04-11T16:30:28.060Z,14.60
2023-04-11T16:32:58.346Z,14.50
2023-04-11T16:35:31.152Z,14.50
2023-04-11T16:38:01.435Z,14.40
2023-04-11T16:40:36.227Z,14.40
2023-04-11T16:43:06.624Z,14.40
2023-04-11T16:45:37.026Z,14.30
2023-04-11T16:48:09.635Z,14.30
2023-04-11T16:50:40.075Z,14.20
2023-04-11T16:53:17.550Z,14.30
2023-04-11T16:55:51.870Z,14.30
2023-04-11T16:58:22.131Z,14.30
2023-04-11T17:00:53.117Z,14.20
2023-04-11T17:03:23.828Z,14.20
2023-04-11T17:05:54.238Z,14.20
2023-04-11T17:08:24.558Z,14.20
2023-04-11T17:11:09.372Z,14.20
2023-04-11T17:13:40.961Z,14.10
2023-04-11T17:16:11.732Z,14.00
2023-04-11T17:18:43.659Z,13.90
2023-04-11T17:21:13.849Z,13.90
2023-04-11T17:23:44.262Z,14.00
2023-04-11T17:26:18.499Z,13.80
2023-04-11T17:28:50.550Z,13.80
2023-04-11T17:31:21.095Z,13.80
2023-04-11T17:33:51.441Z,13.70
2023-04-11T17:36:25.649Z,13.70
2023-04-11T17:38:56.127Z,13.60
2023-04-11T17:41:28.946Z,13.50
2023-04-11T17:44:03.757Z,13.40
2023-04-11T17:46:33.965Z,13.20
2023-04-11T17:49:05.463Z,13.20
2023-04-11T17:51:38.897Z,13.10
2023-04-11T17:54:13.465Z,13.20
2023-04-11T17:56:46.485Z,13.10
2023-04-11T17:59:17.374Z,13.00
2023-04-11T18:01:48.640Z,13.00
2023-04-11T18:04:18.999Z,13.00
2023-04-11T18:06:49.158Z,13.00
2023-04-11T18:09:19.371Z,12.90
2023-04-11T18:11:52.132Z,12.90
2023-04-11T18:14:22.346Z,12.80
2023-04-11T18:16:52.488Z,12.80
2023-04-11T18:19:22.678Z,12.80
2023-04-11T18:21:53.624Z,12.70
2023-04-11T18:24:23.816Z,12.70
2023-04-11T18:26:56.845Z,12.60
2023-04-11T18:29:27.085Z,12.60
2023-04-11T18:31:57.471Z,12.50
2023-04-11T18:34:27.672Z,12.40
2023-04-11T18:36:58.010Z,12.40
2023-04-11T18:39:28.226Z,12.30
2023-04-11T18:42:01.006Z,12.30
2023-04-11T18:44:31.465Z,12.30
2023-04-11T18:47:05.610Z,12.30
2023-04-11T18:49:38.037Z,12.20
2023-04-11T18:52:08.571Z,12.20
2023-04-11T18:54:39.534Z,12.10
2023-04-11T18:57:14.715Z,12.10
2023-04-11T18:59:47.197Z,12.00
2023-04-11T19:02:19.808Z,12.00
2023-04-11T19:04:50.859Z,11.90
2023-04-11T19:07:21.515Z,11.90
2023-04-11T19:09:52.011Z,11.90
2023-04-11T19:12:24.921Z,11.80
2023-04-11T19:14:55.125Z,11.80
2023-04-11T19:17:25.658Z,11.90
2023-04-11T19:19:56.043Z,11.80
2023-04-11T19:22:26.245Z,11.70
2023-04-11T19:24:56.664Z,11.70
2023-04-11T19:27:29.588Z,11.70
2023-04-11T19:30:03.946Z,11.70
2023-04-11T19:32:38.582Z,11.60
2023-04-11T19:35:10.966Z,11.60
2023-04-11T19:37:48.350Z,11.70
2023-04-11T19:40:23.644Z,11.80
2023-04-11T19:42:56.904Z,11.70
2023-04-11T19:45:32.024Z,11.60
2023-04-11T19:48:03.844Z,11.40
2023-04-11T19:50:36.658Z,11.40
2023-04-11T19:53:10.301Z,11.30
2023-04-11T19:55:41.239Z,11.30
2023-04-11T19:58:14.044Z,11.30
2023-04-11T20:00:44.445Z,11.30
2023-04-11T20:03:15.102Z,11.20
2023-04-11T20:05:45.829Z,11.20
2023-04-11T20:08:17.893Z,11.20
2023-04-11T20:10:48.094Z,11.20
2023-04-11T20:13:21.712Z,11.20
2023-04-11T20:15:51.861Z,11.30
2023-04-11T20:18:21.988Z,11.20
2023-04-11T20:20:52.185Z,11.30
2023-04-11T20:23:22.390Z,11.30
2023-04-11T20:25:52.590Z,11.40
2023-04-11T20:28:25.462Z,11.30
2023-04-11T20:30:55.747Z,11.30
2023-04-11T20:33:25.985Z,11.30
2023-04-11T20:35:58.544Z,11.20
2023-04-11T20:38:28.801Z,11.20
2023-04-11T20:41:03.936Z,11.30
2023-04-11T20:43:37.754Z,11.30
2023-04-11T20:46:11.432Z,11.30
2023-04-11T20:48:41.803Z,11.30
2023-04-11T20:51:12.170Z,11.30
2023-04-11T20:53:42.444Z,11.40
2023-04-11T20:56:19.651Z,11.40
2023-04-11T20:58:53.294Z,11.40
2023-04-11T21:01:23.497Z,11.40
2023-04-11T21:03:54.300Z,11.30
2023-04-11T21:06:25.425Z,11.30
2023-04-11T21:08:55.586Z,11.20
2023-04-11T21:11:26.157Z,11.20
2023-04-11T21:13:59.305Z,11.20
2023-04-11T21:16:29.578Z,11.20
2023-04-11T21:18:59.772Z,11.10
2023-04-11T21:21:29.900Z,11.20
2023-04-11T21:24:00.506Z,11.10
2023-04-11T21:26:31.494Z,11.10
2023-04-11T21:29:04.298Z,11.10
2023-04-11T21:31:34.569Z,11.00
2023-04-11T21:34:04.835Z,11.00
2023-04-11T21:36:35.060Z,11.00
2023-04-11T21:39:08.507Z,11.10
2023-04-11T21:41:38.691Z,11.20
2023-04-11T21:44:11.505Z,11.20
2023-04-11T21:46:41.896Z,11.00
2023-04-11T21:49:12.227Z,11.00
2023-04-11T21:51:42.438Z,11.10
2023-04-11T21:54:14.792Z,11.10
2023-04-11T21:56:45.570Z,11.00
2023-04-11T21:59:18.530Z,11.00
2023-04-11T22:01:48.888Z,11.10
2023-04-11T22:04:19.622Z,11.10
2023-04-11T22:06:50.093Z,11.10
2023-04-11T22:09:21.343Z,11.10
2023-04-11T22:11:51.572Z,11.00
2023-04-11T22:14:28.267Z,11.10
2023-04-11T22:17:00.999Z,11.10
2023-04-11T22:19:35.111Z,11.10
2023-04-11T22:22:08.329Z,11.10
2023-04-11T22:24:38.571Z,11.10
2023-04-11T22:27:10.446Z,11.10
2023-04-11T22:29:45.462Z,11.20
2023-04-11T22:32:15.838Z,11.20
2023-04-11T22:34:46.241Z,11.20
2023-04-11T22:37:16.425Z,11.20
2023-04-11T22:39:46.702Z,11.20
2023-04-11T22:42:17.023Z,11.30
2023-04-11T22:44:49.835Z,11.30
2023-04-11T22:47:22.034Z,11.30
2023-04-11T22:49:52.395Z,11.40
2023-04-11T22:52:26.021Z,11.40
2023-04-11T22:54:57.841Z,11.30
2023-04-11T22:57:28.133Z,11.30
2023-04-11T23:00:03.108Z,11.30
2023-04-11T23:02:34.312Z,11.20
2023-04-11T23:05:06.269Z,11.20
2023-04-11T23:07:45.424Z,11.30
2023-04-11T23:10:17.075Z,11.30
2023-04-11T23:12:48.206Z,11.30
2023-04-11T23:15:22.788Z,11.30
2023-04-11T23:17:53.009Z,11.30
2023-04-11T23:20:23.361Z,11.20
2023-04-11T23:22:53.585Z,11.10
2023-04-11T23:25:24.096Z,11.20
2023-04-11T23:27:54.335Z,11.10
2023-04-11T23:30:27.268Z,11.10
2023-04-11T23:32:57.483Z,11.10
2023-04-11T23:35:27.786Z,11.20
2023-04-11T23:37:58.062Z,11.20
2023-04-11T23:40:29.697Z,11.20
2023-04-11T23:43:00.264Z,11.30
2023-04-11T23:45:33.074Z,11.20
2023-04-11T23:48:03.351Z,11.20
2023-04-11T23:50:33.577Z,11.30
2023-04-11T23:53:03.792Z,11.20
2023-04-11T23:55:33.930Z,11.20
2023-04-11T23:58:04.743Z,11.20
